Time;durP1;ratioP1;P1;durP2;ratioP2;P2;SDS_P1;SDS_P2;PMS_P1;PMS_P2;Temp;Humidity;BMP_temperature;BMP_pressure;BME280_temperature;BME280_humidity;BME280_pressure;Samples;Min_cycle;Max_cycle;Signal;HPM_P1;HPM_P2
2021/01/29 00:02:16;;;;;;;24.52;3.58;;;;;;;12.43;74.14;97321.66;5017705;28;20041;-81
2021/01/29 00:04:46;;;;;;;22.15;4.50;;;;;;;12.64;73.80;97329.25;5012389;28;20132;-81
2021/01/29 00:07:13;;;;;;;16.30;3.75;;;;;;;12.55;73.66;97321.88;5017732;28;20430;-81
2021/01/29 00:09:40;;;;;;;21.08;4.47;;;;;;;12.80;73.18;97331.06;5009852;28;20052;-80
2021/01/29 00:12:07;;;;;;;19.52;5.70;;;;;;;12.57;73.86;97322.63;5021139;28;20127;-81
2021/01/29 00:14:35;;;;;;;25.48;5.28;;;;;;;12.52;73.52;97311.56;5010102;28;20050;-80
2021/01/29 00:17:02;;;;;;;17.77;5.18;;;;;;;12.74;73.45;97313.88;4998636;28;20123;-80
2021/01/29 00:19:29;;;;;;;24.02;5.70;;;;;;;12.75;73.01;97318.22;5016066;28;20084;-81
2021/01/29 00:21:56;;;;;;;18.92;4.72;;;;;;;12.74;72.82;97319.13;5009599;28;20053;-80
2021/01/29 00:24:23;;;;;;;18.08;4.70;;;;;;;12.27;74.15;97310.31;4998117;28;20053;-82
2021/01/29 00:26:49;;;;;;;17.15;4.75;;;;;;;12.67;73.51;97317.75;5023268;28;20076;-80
2021/01/29 00:29:16;;;;;;;15.52;5.85;;;;;;;12.64;72.49;97312.69;5018460;28;20420;-81
2021/01/29 00:31:43;;;;;;;23.48;5.88;;;;;;;12.59;73.19;97317.31;5011141;28;20049;-81
2021/01/29 00:34:12;;;;;;;16.23;6.18;;;;;;;12.59;73.30;97310.31;5009618;28;20129;-81
2021/01/29 00:36:39;;;;;;;22.10;6.68;;;;;;;12.24;74.02;97306.94;5010005;28;20085;-80
2021/01/29 00:39:06;;;;;;;29.80;6.78;;;;;;;12.30;73.85;97323.25;5019449;28;20069;-80
2021/01/29 00:41:33;;;;;;;21.65;5.88;;;;;;;12.37;73.43;97314.16;5008877;28;20050;-81
2021/01/29 00:43:59;;;;;;;14.63;5.78;;;;;;;12.52;72.98;97308.09;5016966;28;20512;-80
2021/01/29 00:46:26;;;;;;;20.55;5.43;;;;;;;12.48;72.46;97299.56;5014179;28;20713;-80
2021/01/29 00:48:52;;;;;;;18.33;5.22;;;;;;;12.36;72.87;97315.06;5026841;28;20053;-80
2021/01/29 00:51:19;;;;;;;14.25;5.10;;;;;;;12.58;72.31;97316.47;5013559;28;20480;-80
2021/01/29 00:53:45;;;;;;;13.38;4.75;;;;;;;12.53;72.57;97321.09;5014684;28;20073;-80
2021/01/29 00:56:12;;;;;;;9.07;4.03;;;;;;;12.86;71.68;97321.06;5020005;28;20081;-81
2021/01/29 00:58:39;;;;;;;12.15;4.28;;;;;;;12.79;71.64;97324.13;5014174;28;20396;-80
2021/01/29 01:01:06;;;;;;;13.93;5.43;;;;;;;13.12;70.79;97321.47;5018472;28;20136;-81
2021/01/29 01:03:33;;;;;;;13.80;5.25;;;;;;;13.06;70.72;97318.22;5011698;28;20140;-80
2021/01/29 01:05:59;;;;;;;8.25;3.85;;;;;;;13.13;70.49;97312.66;5019711;28;20921;-81
2021/01/29 01:08:26;;;;;;;14.30;4.47;;;;;;;13.25;69.94;97323.31;5015901;28;20141;-80
2021/01/29 01:10:53;;;;;;;9.55;4.40;;;;;;;12.99;71.35;97329.97;5016938;28;20073;-81
2021/01/29 01:13:20;;;;;;;9.65;4.35;;;;;;;13.07;70.30;97322.53;5013904;28;20041;-80
2021/01/29 01:15:46;;;;;;;18.55;4.70;;;;;;;13.04;70.05;97321.88;5016459;28;20196;-81
2021/01/29 01:18:13;;;;;;;11.40;4.63;;;;;;;13.05;70.75;97316.50;5016814;28;20045;-81
2021/01/29 01:20:40;;;;;;;10.30;4.70;;;;;;;13.01;70.75;97322.84;5002072;28;20502;-82
2021/01/29 01:23:08;;;;;;;9.95;3.78;;;;;;;12.80;70.98;97326.66;5018496;28;20138;-81
2021/01/29 01:25:34;;;;;;;13.77;3.90;;;;;;;12.75;71.19;97328.69;5016569;28;20405;-80
2021/01/29 01:28:01;;;;;;;12.68;4.15;;;;;;;12.66;71.65;97323.94;5014587;28;20049;-81
2021/01/29 01:30:33;;;;;;;17.83;5.97;;;;;;;12.18;73.12;97325.56;5016861;28;20452;-81
2021/01/29 01:32:59;;;;;;;18.90;6.05;;;;;;;12.65;72.44;97328.34;5014198;28;20042;-80
2021/01/29 01:35:26;;;;;;;23.15;7.00;;;;;;;12.62;71.92;97338.09;5019294;28;20057;-80
2021/01/29 01:37:53;;;;;;;19.88;6.97;;;;;;;12.30;73.15;97336.34;5018987;28;20048;-80
2021/01/29 01:40:30;;;;;;;22.88;6.78;;;;;;;12.12;73.81;97331.13;5029097;28;20056;-80
2021/01/29 01:42:57;;;;;;;21.40;7.43;;;;;;;12.37;72.46;97346.44;5016888;28;20075;-80
2021/01/29 01:45:26;;;;;;;18.65;7.25;;;;;;;12.38;72.21;97344.63;5013946;28;20076;-80
2021/01/29 01:48:00;;;;;;;29.58;8.25;;;;;;;12.28;72.46;97340.81;5019085;28;20046;-80
2021/01/29 01:50:39;;;;;;;23.40;5.63;;;;;;;12.10;72.50;97332.97;5016142;28;20523;-80
2021/01/29 01:53:20;;;;;;;28.25;7.22;;;;;;;12.05;72.74;97347.22;5015957;28;20136;-80
2021/01/29 01:55:53;;;;;;;27.42;5.95;;;;;;;12.07;73.29;97341.00;5013143;28;20057;-82
2021/01/29 01:58:20;;;;;;;24.17;6.53;;;;;;;11.88;74.30;97348.06;5021966;28;20049;-80
2021/01/29 02:00:46;;;;;;;28.60;7.60;;;;;;;11.79;74.27;97338.06;5015129;28;20080;-82
2021/01/29 02:03:19;;;;;;;21.55;6.10;;;;;;;12.17;73.69;97357.91;5023148;28;20163;-81
2021/01/29 02:05:45;;;;;;;;;;;;;;;12.14;73.49;97347.59;5017933;28;20054;-81
2021/01/29 02:08:15;;;;;;;26.90;6.72;;;;;;;12.27;73.43;97349.59;5025364;28;19990;-81
2021/01/29 02:10:42;;;;;;;25.63;5.80;;;;;;;12.39;72.59;97349.78;5023499;28;20058;-81
2021/01/29 02:13:09;;;;;;;31.92;6.20;;;;;;;12.13;72.99;97338.03;5006689;28;20412;-81
2021/01/29 02:15:46;;;;;;;30.80;4.95;;;;;;;11.83;73.22;97329.13;5018956;28;20049;-81
2021/01/29 02:18:32;;;;;;;25.08;5.38;;;;;;;12.40;71.43;97327.06;5022479;28;20045;-81
2021/01/29 02:21:36;;;;;;;22.13;5.00;;;;;;;12.43;70.14;97329.53;5016787;28;20049;-81
2021/01/29 02:24:36;;;;;;;23.13;5.15;;;;;;;11.68;72.11;97335.94;5021767;28;20060;-80
2021/01/29 02:27:06;;;;;;;23.15;4.15;;;;;;;11.68;72.10;97338.56;5032070;28;20099;-81
2021/01/29 02:30:08;;;;;;;33.45;5.15;;;;;;;11.69;72.32;97336.78;5019726;28;20050;-81
2021/01/29 02:32:35;;;;;;;;;;;;;;;11.69;72.48;97344.63;5015671;28;20053;-80
2021/01/29 02:35:25;;;;;;;27.08;4.40;;;;;;;11.83;71.43;97349.22;5022718;28;19932;-83
2021/01/29 02:38:23;;;;;;;41.35;4.93;;;;;;;11.75;72.07;97346.97;5019096;28;20046;-80
2021/01/29 02:41:04;;;;;;;24.73;5.15;;;;;;;11.60;72.35;97352.94;5018499;28;20049;-82
2021/01/29 02:44:05;;;;;;;28.85;4.22;;;;;;;12.16;70.45;97350.97;5020446;28;20870;-81
2021/01/29 02:46:54;;;;;;;40.13;6.80;;;;;;;11.97;71.13;97352.00;5033123;28;20089;-79
2021/01/29 02:50:07;;;;;;;30.27;5.78;;;;;;;11.63;71.89;97347.53;4999625;28;20057;-79
2021/01/29 02:53:11;;;;;;;32.07;5.60;;;;;;;11.82;70.64;97343.13;5015058;28;20050;-79
2021/01/29 02:55:55;;;;;;;37.10;4.45;;;;;;;11.63;70.89;97347.53;5029270;28;20065;-80
2021/01/29 02:58:51;;;;;;;42.78;5.03;;;;;;;11.54;72.04;97350.63;5029228;28;20064;-81
2021/01/29 03:01:28;;;;;;;35.45;5.35;;;;;;;11.52;71.47;97345.44;4998531;28;20071;-78
2021/01/29 03:04:14;;;;;;;35.42;5.43;;;;;;;11.55;71.90;97337.47;5012329;28;20058;-79
2021/01/29 03:06:52;;;;;;;24.17;4.50;;;;;;;11.87;69.58;97345.53;5018106;28;20053;-79
2021/01/29 03:09:42;;;;;;;28.02;4.88;;;;;;;11.64;70.05;97344.88;5028007;28;20046;-82
2021/01/29 03:12:35;;;;;;;27.35;4.78;;;;;;;11.63;69.99;97339.69;5027208;28;20380;-79
2021/01/29 03:15:12;;;;;;;34.83;4.97;;;;;;;11.68;70.18;97335.09;5014907;28;20057;-79
2021/01/29 03:17:44;;;;;;;33.50;5.20;;;;;;;11.85;69.78;97339.50;5012817;28;20049;-80
2021/01/29 03:20:25;;;;;;;30.10;4.65;;;;;;;11.63;68.98;97322.25;5021578;28;20041;-79
2021/01/29 03:22:58;;;;;;;31.20;5.22;;;;;;;11.49;69.25;97331.69;5014893;28;20060;-79
2021/01/29 03:25:33;;;;;;;30.70;5.03;;;;;;;11.64;69.33;97330.94;5014348;28;20132;-79
2021/01/29 03:28:07;;;;;;;30.23;6.65;;;;;;;11.11;71.28;97331.75;5015084;28;20724;-78
2021/01/29 03:30:37;;;;;;;30.65;4.72;;;;;;;11.27;70.78;97331.91;5019422;28;20148;-79
2021/01/29 03:33:07;;;;;;;27.00;5.97;;;;;;;11.32;70.13;97333.34;5000064;28;20052;-80
2021/01/29 03:35:41;;;;;;;26.17;4.82;;;;;;;11.49;69.31;97339.53;5021611;28;20508;-80
2021/01/29 03:38:12;;;;;;;27.35;5.28;;;;;;;11.79;67.92;97338.06;5017936;28;20049;-81
2021/01/29 03:41:28;;;;;;;25.17;5.68;;;;;;;11.47;68.91;97338.75;5016348;28;20052;-80
2021/01/29 03:44:10;;;;;;;25.42;4.72;;;;;;;11.52;69.26;97345.44;5003901;28;20166;-80
2021/01/29 03:46:39;;;;;;;;;;;;;;;11.31;69.37;97347.34;5029164;28;20049;-80
2021/01/29 03:49:21;;;;;;;27.83;4.78;;;;;;;11.25;69.67;97342.41;5028338;28;19921;-80
2021/01/29 03:52:15;;;;;;;38.38;4.85;;;;;;;11.56;68.30;97340.94;5017160;28;20045;-80
2021/01/29 03:55:14;;;;;;;25.05;4.63;;;;;;;11.46;68.44;97334.47;5016258;28;20157;-80
2021/01/29 03:58:19;;;;;;;27.50;4.85;;;;;;;11.63;67.75;97342.31;5008861;28;20436;-80
2021/01/29 04:01:25;;;;;;;43.33;6.35;;;;;;;11.51;68.12;97340.31;5011704;28;20046;-80
2021/01/29 04:04:03;;;;;;;32.28;4.78;;;;;;;11.26;68.58;97341.50;5032541;28;20046;-79
2021/01/29 04:06:37;;;;;;;29.33;5.60;;;;;;;11.55;68.60;97339.25;5014584;28;20045;-81
2021/01/29 04:09:16;;;;;;;25.63;4.50;;;;;;;11.68;67.83;97359.47;5019441;28;20779;-80
2021/01/29 04:11:49;;;;;;;34.30;5.70;;;;;;;11.76;66.89;97346.91;5030030;28;20061;-80
2021/01/29 04:14:41;;;;;;;29.92;4.65;;;;;;;11.56;67.48;97341.75;5022823;28;20176;-80
2021/01/29 04:17:16;;;;;;;23.67;5.00;;;;;;;11.64;67.49;97337.03;5023473;28;20057;-79
2021/01/29 04:19:48;;;;;;;22.98;4.45;;;;;;;11.58;67.82;97341.69;5001255;28;20053;-80
2021/01/29 04:22:20;;;;;;;22.27;5.28;;;;;;;11.52;67.78;97340.22;5013027;28;20048;-80
2021/01/29 04:25:04;;;;;;;35.88;5.10;;;;;;;11.38;68.05;97343.50;5012867;28;20053;-80
2021/01/29 04:27:37;;;;;;;26.58;5.78;;;;;;;11.42;68.13;97348.56;5035013;28;20057;-79
2021/01/29 04:30:12;;;;;;;;;;;;;;;11.25;67.88;97352.00;5022249;28;20128;-79
2021/01/29 04:32:43;;;;;;;31.30;6.22;;;;;;;11.27;67.73;97337.94;5007776;28;19994;-80
2021/01/29 04:35:17;;;;;;;30.40;7.07;;;;;;;11.37;67.89;97340.97;5012314;28;20557;-80
2021/01/29 04:37:55;;;;;;;31.75;10.05;;;;;;;11.49;67.98;97343.00;5011104;28;20072;-79
2021/01/29 04:40:34;;;;;;;28.58;10.43;;;;;;;11.24;68.50;97342.47;5018505;28;20130;-80
2021/01/29 04:43:38;;;;;;;34.33;11.32;;;;;;;11.33;68.19;97335.03;5023530;28;20046;-79
2021/01/29 04:46:11;;;;;;;35.15;11.05;;;;;;;11.15;68.32;97343.75;5015123;28;20090;-79
2021/01/29 04:48:55;;;;;;;;;;;;;;;11.14;68.41;97342.06;5017211;28;20053;-79
2021/01/29 04:52:06;;;;;;;33.42;10.63;;;;;;;11.24;68.29;97345.09;5014401;28;19928;-79
2021/01/29 04:54:40;;;;;;;34.42;10.40;;;;;;;10.97;69.59;97351.63;4992855;28;20132;-79
2021/01/29 04:57:43;;;;;;;31.95;10.10;;;;;;;11.35;68.15;97350.66;4975269;28;20346;-79
2021/01/29 05:00:54;;;;;;;33.22;9.18;;;;;;;11.57;67.70;97356.53;4990016;28;20054;-79
2021/01/29 05:03:54;;;;;;;33.63;9.35;;;;;;;10.78;69.47;97344.63;4917034;28;20063;-79
2021/01/29 05:06:48;;;;;;;34.85;11.05;;;;;;;11.01;68.60;97353.16;4937863;28;20047;-79
2021/01/29 05:09:55;;;;;;;35.38;11.10;;;;;;;11.23;68.11;97364.28;4920619;29;20044;-79
2021/01/29 05:12:36;;;;;;;40.15;12.15;;;;;;;11.25;68.21;97354.63;4933225;28;20479;-80
2021/01/29 05:15:23;;;;;;;45.05;13.60;;;;;;;11.51;66.97;97351.59;4937790;28;20138;-80
2021/01/29 05:18:04;;;;;;;32.95;10.90;;;;;;;11.52;67.26;97360.28;4934485;28;20051;-79
2021/01/29 05:20:30;;;;;;;33.42;11.13;;;;;;;11.48;66.89;97361.38;4939106;28;20054;-79
2021/01/29 05:23:16;;;;;;;42.58;11.18;;;;;;;11.51;66.59;97353.38;4918809;28;20059;-79
2021/01/29 05:26:00;;;;;;;47.78;11.60;;;;;;;11.67;66.55;97351.69;4924381;28;20074;-79
2021/01/29 05:28:45;;;;;;;34.75;10.80;;;;;;;11.77;65.29;97360.81;4955381;28;20074;-81
2021/01/29 05:31:22;;;;;;;40.10;11.23;;;;;;;11.60;66.07;97360.78;4941467;28;20074;-79
2021/01/29 05:34:04;;;;;;;36.95;11.07;;;;;;;11.58;66.17;97360.00;4961206;28;20039;-79
2021/01/29 05:37:19;;;;;;;39.30;11.40;;;;;;;11.34;67.19;97359.41;4976911;28;20064;-79
2021/01/29 05:40:01;;;;;;;41.75;10.00;;;;;;;11.59;66.09;97356.47;4977556;28;20046;-80
2021/01/29 05:42:44;;;;;;;42.28;11.63;;;;;;;11.64;66.36;97359.72;5029609;28;20053;-79
2021/01/29 05:45:32;;;;;;;41.38;8.35;;;;;;;11.47;66.75;97347.44;5020854;28;20139;-79
2021/01/29 05:48:36;;;;;;;48.22;10.13;;;;;;;11.59;65.98;97341.63;5023125;28;20050;-80
2021/01/29 05:51:32;;;;;;;35.92;9.68;;;;;;;11.13;67.43;97342.13;5031379;28;20056;-79
2021/01/29 05:54:10;;;;;;;33.17;8.23;;;;;;;11.45;66.79;97338.84;5018900;28;20072;-79
2021/01/29 05:57:10;;;;;;;42.88;9.85;;;;;;;10.98;67.96;97338.50;5025425;28;20107;-79
2021/01/29 06:00:12;;;;;;;34.35;8.93;;;;;;;10.83;68.55;97347.03;5020172;28;20041;-80
2021/01/29 06:03:22;;;;;;;44.35;8.35;;;;;;;10.97;67.65;97347.25;5028313;28;20072;-79
2021/01/29 06:06:17;;;;;;;42.55;10.00;;;;;;;11.10;67.83;97343.13;5042494;28;20617;-79
2021/01/29 06:08:50;;;;;;;46.15;8.80;;;;;;;11.35;66.36;97345.44;5055614;28;20253;-79
2021/01/29 06:11:46;;;;;;;41.58;8.10;;;;;;;11.17;67.64;97343.69;5058531;28;20049;-80
2021/01/29 06:14:40;;;;;;;32.80;7.30;;;;;;;11.20;67.82;97340.94;5031473;28;20546;-79
2021/01/29 06:17:21;;;;;;;39.53;7.25;;;;;;;10.98;68.29;97342.88;5059924;28;20563;-80
2021/01/29 06:20:06;;;;;;;34.55;6.53;;;;;;;10.93;67.99;97343.09;5045730;28;20083;-79
2021/01/29 06:22:53;;;;;;;41.22;7.78;;;;;;;11.15;67.37;97340.28;5060068;28;20171;-79
2021/01/29 06:25:42;;;;;;;37.75;7.70;;;;;;;10.85;68.03;97337.34;5060972;28;20134;-79
2021/01/29 06:28:30;;;;;;;35.83;7.57;;;;;;;10.78;68.90;97338.56;5021132;28;20044;-79
2021/01/29 06:31:14;;;;;;;47.05;7.82;;;;;;;10.55;69.28;97336.16;5036128;28;20098;-79
2021/01/29 06:33:59;;;;;;;38.00;8.00;;;;;;;10.87;68.13;97340.75;5061674;28;20055;-79
2021/01/29 06:36:51;;;;;;;52.38;7.90;;;;;;;10.67;69.22;97340.78;5025045;28;20117;-79
2021/01/29 06:39:29;;;;;;;36.53;7.87;;;;;;;11.03;67.78;97336.47;5036417;28;20048;-79
2021/01/29 06:42:13;;;;;;;36.58;6.93;;;;;;;10.73;68.94;97337.91;5001899;28;20061;-80
2021/01/29 06:45:07;;;;;;;42.90;8.23;;;;;;;11.03;67.57;97333.88;5021097;28;20053;-79
2021/01/29 06:48:05;;;;;;;42.92;8.43;;;;;;;10.71;68.63;97337.13;5028283;28;20048;-80
2021/01/29 06:50:57;;;;;;;28.55;6.88;;;;;;;10.52;69.34;97333.66;5030640;28;20124;-80
2021/01/29 06:53:45;;;;;;;44.50;7.28;;;;;;;10.55;69.13;97330.91;5026975;28;20049;-80
2021/01/29 06:56:39;;;;;;;46.67;7.57;;;;;;;10.74;68.39;97337.00;5019314;28;20056;-80
2021/01/29 06:59:26;;;;;;;35.22;7.22;;;;;;;10.60;68.49;97337.59;5019697;28;20069;-79
2021/01/29 07:02:44;;;;;;;34.08;6.85;;;;;;;10.40;69.62;97346.34;5008069;28;20127;-79
2021/01/29 07:05:37;;;;;;;33.40;6.85;;;;;;;10.14;69.95;97348.34;5000589;28;20394;-80
2021/01/29 07:08:22;;;;;;;21.27;5.15;;;;;;;10.52;68.36;97347.56;4988588;28;20155;-80
2021/01/29 07:11:07;;;;;;;27.63;6.43;;;;;;;10.72;67.81;97357.97;4962146;28;20046;-80
2021/01/29 07:14:11;;;;;;;34.50;5.70;;;;;;;10.61;68.10;97373.25;4971725;28;20571;-79
2021/01/29 07:17:07;;;;;;;33.55;5.15;;;;;;;10.40;68.91;97376.81;4976214;28;20109;-79
2021/01/29 07:19:49;;;;;;;39.10;6.22;;;;;;;10.40;68.97;97376.81;4991860;28;20503;-80
2021/01/29 07:22:40;;;;;;;29.58;5.22;;;;;;;10.75;68.62;97372.63;4997539;28;20073;-80
2021/01/29 07:25:07;;;;;;;41.25;7.32;;;;;;;10.55;69.09;97389.19;4977595;28;20085;-80
2021/01/29 07:28:07;;;;;;;40.17;6.00;;;;;;;10.32;70.44;97390.19;4995388;28;20046;-80
2021/01/29 07:30:45;;;;;;;43.97;7.22;;;;;;;10.74;69.58;97390.06;4975161;28;20566;-80
2021/01/29 07:33:31;;;;;;;46.70;8.80;;;;;;;10.33;70.59;97394.50;4995811;28;20136;-80
2021/01/29 07:36:03;;;;;;;37.63;7.32;;;;;;;10.79;69.57;97384.66;4992978;28;20054;-79
2021/01/29 07:39:01;;;;;;;36.15;7.03;;;;;;;10.69;69.84;97397.28;4991934;28;20123;-79
2021/01/29 07:42:19;;;;;;;43.42;6.85;;;;;;;10.93;69.46;97411.00;4972641;28;20088;-80
2021/01/29 07:45:18;;;;;;;37.00;7.43;;;;;;;10.75;70.67;97411.78;4933712;28;20149;-79
2021/01/29 07:48:05;;;;;;;44.00;8.15;;;;;;;10.94;69.58;97421.34;4955546;28;20738;-80
2021/01/29 07:51:25;;;;;;;46.72;8.20;;;;;;;10.90;70.05;97434.63;4954135;28;20058;-80
2021/01/29 07:54:19;;;;;;;39.90;8.45;;;;;;;11.16;69.56;97426.47;4952074;28;22717;-80
2021/01/29 07:56:49;;;;;;;49.15;8.40;;;;;;;11.18;68.99;97439.44;4943451;28;20059;-80
2021/01/29 07:59:24;;;;;;;34.70;7.65;;;;;;;11.45;67.61;97439.97;4957200;28;20103;-80
2021/01/29 08:02:03;;;;;;;40.25;7.40;;;;;;;11.15;68.93;97443.06;4942102;28;25135;-78
2021/01/29 08:05:01;;;;;;;35.67;7.90;;;;;;;11.36;68.46;97449.94;4939265;28;20056;-78
2021/01/29 08:07:42;;;;;;;36.65;7.10;;;;;;;11.34;68.40;97469.19;4921982;28;20451;-79
2021/01/29 08:10:26;;;;;;;36.97;6.72;;;;;;;10.87;70.03;97466.13;4952304;28;20039;-79
2021/01/29 08:13:28;;;;;;;21.27;5.47;;;;;;;11.50;68.27;97466.72;4957918;28;20059;-78
2021/01/29 08:16:01;;;;;;;23.95;5.82;;;;;;;10.80;70.25;97464.69;4952877;28;20047;-78
2021/01/29 08:18:45;;;;;;;27.38;6.97;;;;;;;10.89;69.76;97472.09;4958863;28;20097;-78
2021/01/29 08:21:39;;;;;;;30.73;6.70;;;;;;;10.95;69.93;97474.47;5008636;28;20045;-78
2021/01/29 08:24:25;;;;;;;31.55;7.15;;;;;;;10.96;70.57;97476.16;4993525;28;20506;-78
2021/01/29 08:27:19;;;;;;;35.08;7.28;;;;;;;11.24;69.45;97476.63;4994284;28;20049;-80
2021/01/29 08:29:45;;;;;;;41.97;8.43;;;;;;;10.98;70.26;97481.31;5034178;28;20088;-79
2021/01/29 08:32:40;;;;;;;40.53;8.65;;;;;;;11.02;70.51;97490.72;5018476;28;20053;-78
2021/01/29 08:35:17;;;;;;;48.70;9.70;;;;;;;11.17;69.77;97495.25;5018394;28;20096;-79
2021/01/29 08:37:54;;;;;;;48.67;10.52;;;;;;;11.02;70.41;97491.56;5012072;28;20054;-78
2021/01/29 08:40:39;;;;;;;60.92;11.70;;;;;;;11.25;70.14;97499.22;5019060;28;20080;-78
2021/01/29 08:43:34;;;;;;;54.03;13.23;;;;;;;10.85;71.65;97496.66;5016222;28;20119;-78
2021/01/29 08:46:23;;;;;;;39.92;10.43;;;;;;;11.41;70.02;97499.38;5029219;28;20314;-79
2021/01/29 08:49:02;;;;;;;41.80;9.90;;;;;;;11.54;69.15;97503.13;5013910;28;20405;-79
2021/01/29 08:51:42;;;;;;;33.67;8.23;;;;;;;11.17;69.66;97505.72;5012748;28;20041;-78
2021/01/29 08:54:36;;;;;;;29.42;8.90;;;;;;;11.33;69.29;97504.09;5012033;28;20778;-78
2021/01/29 08:57:08;;;;;;;31.27;7.90;;;;;;;11.28;69.80;97509.53;5008121;28;20100;-79
2021/01/29 08:59:39;;;;;;;28.55;7.10;;;;;;;11.41;69.48;97502.00;4997633;28;20485;-79
2021/01/29 09:02:21;;;;;;;29.48;7.32;;;;;;;11.84;68.92;97502.66;5012119;28;20503;-79
2021/01/29 09:04:48;;;;;;;27.27;5.78;;;;;;;11.75;68.09;97501.28;5023430;28;20053;-79
2021/01/29 09:07:22;;;;;;;35.85;5.93;;;;;;;11.76;69.23;97500.38;5029800;28;20053;-80
2021/01/29 09:09:51;;;;;;;26.60;5.25;;;;;;;12.17;66.86;97507.13;5001631;28;20077;-78
2021/01/29 09:12:28;;;;;;;25.27;5.13;;;;;;;12.42;66.65;97519.00;5017303;28;20064;-79
2021/01/29 09:15:11;;;;;;;29.25;5.40;;;;;;;12.34;66.55;97526.38;5020787;28;20061;-77
2021/01/29 09:17:47;;;;;;;29.88;5.10;;;;;;;13.22;63.97;97533.25;5008255;28;20050;-80
2021/01/29 09:20:25;;;;;;;24.80;4.75;;;;;;;13.03;63.46;97535.09;5018126;28;20442;-77
2021/01/29 09:23:03;;;;;;;32.95;5.00;;;;;;;12.97;64.02;97538.03;5022626;28;20041;-77
2021/01/29 09:25:42;;;;;;;32.25;5.20;;;;;;;12.83;64.75;97541.34;5029691;28;20145;-78
2021/01/29 09:28:35;;;;;;;38.00;5.57;;;;;;;13.06;63.71;97543.63;5013902;28;20111;-78
2021/01/29 09:31:14;;;;;;;25.10;4.55;;;;;;;12.36;66.13;97558.56;5016517;28;20049;-78
2021/01/29 09:33:53;;;;;;;31.90;4.63;;;;;;;12.80;65.27;97552.00;5010496;28;20071;-79
2021/01/29 09:36:38;;;;;;;35.47;5.70;;;;;;;12.84;64.00;97555.31;5011727;28;20062;-78
2021/01/29 09:39:07;;;;;;;39.22;5.15;;;;;;;12.97;64.42;97561.59;5005344;28;20065;-78
2021/01/29 09:41:45;;;;;;;34.67;6.13;;;;;;;12.84;64.58;97552.69;5012077;28;20068;-77
2021/01/29 09:44:24;;;;;;;28.75;5.15;;;;;;;12.32;66.34;97568.34;5014192;28;20146;-78
2021/01/29 09:46:57;;;;;;;31.65;4.85;;;;;;;13.64;62.17;97566.00;5014846;28;20073;-78
2021/01/29 09:49:26;;;;;;;31.48;5.00;;;;;;;13.48;62.01;97566.78;5006411;28;20140;-77
2021/01/29 09:51:59;;;;;;;26.92;5.07;;;;;;;14.40;59.17;97565.28;5014844;28;20049;-76
2021/01/29 09:54:27;;;;;;;29.90;5.50;;;;;;;15.12;56.88;97572.44;5006818;28;20049;-77
2021/01/29 09:57:01;;;;;;;37.95;6.35;;;;;;;15.66;54.98;97568.31;5019348;28;20178;-80
2021/01/29 09:59:39;;;;;;;30.38;4.70;;;;;;;15.57;54.64;97567.09;5028702;28;20192;-79
2021/01/29 10:02:44;;;;;;;23.80;4.72;;;;;;;16.95;51.98;97581.91;5022054;28;20049;-77
2021/01/29 10:05:45;;;;;;;25.60;5.47;;;;;;;17.57;49.23;97576.81;5013602;28;20045;-78
2021/01/29 10:08:19;;;;;;;33.70;5.35;;;;;;;17.48;49.95;97577.44;5015826;28;20045;-78
2021/01/29 10:11:17;;;;;;;23.13;4.07;;;;;;;17.26;49.95;97578.06;5013005;28;20054;-78
2021/01/29 10:13:44;;;;;;;27.45;4.55;;;;;;;17.55;49.20;97585.78;5015577;28;20049;-76
2021/01/29 10:16:17;;;;;;;21.98;4.85;;;;;;;18.45;46.32;97593.47;5014240;28;20381;-78
2021/01/29 10:18:59;;;;;;;25.27;4.88;;;;;;;18.10;47.51;97601.28;5014564;28;20045;-77
2021/01/29 10:21:43;;;;;;;21.23;3.83;;;;;;;18.98;45.22;97618.69;5016311;28;20050;-75
2021/01/29 10:24:22;;;;;;;27.35;5.63;;;;;;;19.76;43.62;97629.53;5016875;28;20080;-76
2021/01/29 10:27:04;;;;;;;21.70;4.78;;;;;;;19.83;43.39;97641.31;5012057;28;20457;-77
2021/01/29 10:29:33;;;;;;;;;;;;;;;19.36;43.75;97645.78;5021395;28;20341;-76
2021/01/29 10:32:22;;;;;;;19.17;4.88;;;;;;;18.40;44.73;97654.63;5026245;28;19928;-76
2021/01/29 10:35:07;;;;;;;24.10;4.35;;;;;;;18.04;45.20;97662.47;5038737;28;20076;-76
2021/01/29 10:37:43;;;;;;;21.17;4.53;;;;;;;18.22;45.75;97666.50;5032859;28;20050;-75
2021/01/29 10:40:12;;;;;;;22.63;4.65;;;;;;;16.46;50.47;97670.38;5034836;28;20080;-76
2021/01/29 10:42:51;;;;;;;26.02;3.58;;;;;;;16.06;51.80;97680.78;5012749;28;20099;-75
2021/01/29 10:45:49;;;;;;;22.13;4.07;;;;;;;16.96;48.63;97672.44;5032762;28;20045;-76
2021/01/29 10:48:27;;;;;;;23.05;4.38;;;;;;;18.01;47.26;97671.47;5031325;28;20758;-77
2021/01/29 10:51:02;;;;;;;22.05;4.20;;;;;;;18.40;44.24;97667.84;5032153;28;20044;-76
2021/01/29 10:53:30;;;;;;;25.38;4.05;;;;;;;19.63;42.04;97669.34;5018869;28;20048;-76
2021/01/29 10:56:05;;;;;;;23.52;4.28;;;;;;;18.62;43.53;97681.25;5042369;28;20072;-76
2021/01/29 10:58:46;;;;;;;23.35;4.53;;;;;;;18.12;44.61;97682.16;4999681;28;20056;-77
2021/01/29 11:01:23;;;;;;;28.20;4.03;;;;;;;15.83;50.35;97680.47;5033363;28;20041;-76
2021/01/29 11:04:04;;;;;;;20.75;4.38;;;;;;;15.17;52.35;97680.88;5012625;28;20050;-77
2021/01/29 11:06:59;;;;;;;26.75;5.10;;;;;;;15.06;53.76;97693.81;5037156;28;20073;-75
2021/01/29 11:09:38;;;;;;;21.35;4.53;;;;;;;15.82;51.02;97703.34;5018411;28;20049;-77
2021/01/29 11:12:26;;;;;;;21.58;3.72;;;;;;;14.88;53.82;97706.19;5030770;28;20078;-77
2021/01/29 11:15:11;;;;;;;20.70;3.75;;;;;;;16.34;50.28;97710.69;5018735;28;20100;-76
2021/01/29 11:18:23;;;;;;;22.83;3.75;;;;;;;17.46;47.55;97705.22;4995480;28;20137;-76
2021/01/29 11:20:57;;;;;;;21.95;3.75;;;;;;;17.79;45.30;97710.91;5012689;28;20057;-76
2021/01/29 11:23:33;;;;;;;19.70;4.05;;;;;;;18.38;44.53;97719.13;5027670;28;20046;-78
2021/01/29 11:26:12;;;;;;;19.85;3.70;;;;;;;17.89;46.54;97722.50;5014770;28;20145;-77
2021/01/29 11:28:45;;;;;;;17.10;4.25;;;;;;;18.62;44.57;97714.78;5024074;28;20122;-79
2021/01/29 11:31:36;;;;;;;22.00;4.90;;;;;;;19.85;41.53;97724.22;5033374;28;20045;-78
2021/01/29 11:34:06;;;;;;;20.73;3.65;;;;;;;18.70;42.90;97720.38;5010713;28;20548;-78
2021/01/29 11:36:34;;;;;;;18.50;4.03;;;;;;;19.47;41.98;97721.81;5024172;28;20124;-78
2021/01/29 11:39:07;;;;;;;16.27;3.45;;;;;;;18.25;44.02;97727.06;5027656;28;20042;-77
2021/01/29 11:41:59;;;;;;;10.23;2.65;;;;;;;19.30;41.04;97724.81;5000770;28;20128;-77
2021/01/29 11:44:38;;;;;;;10.60;1.90;;;;;;;20.07;40.24;97728.69;5028786;28;20124;-82
2021/01/29 11:47:14;;;;;;;14.80;3.05;;;;;;;20.67;37.99;97726.56;5000169;28;20150;-78
2021/01/29 11:49:58;;;;;;;14.70;2.53;;;;;;;19.62;38.41;97728.56;5009071;28;20132;-81
2021/01/29 11:52:31;;;;;;;9.40;2.85;;;;;;;18.61;40.79;97743.03;5019563;28;20548;-77
2021/01/29 11:55:43;;;;;;;12.45;3.17;;;;;;;19.48;39.94;97753.44;5024634;28;20077;-80
2021/01/29 11:58:15;;;;;;;16.02;3.00;;;;;;;18.85;41.83;97751.00;5030393;28;20045;-78
2021/01/29 12:00:49;;;;;;;;;;;;;;;17.86;45.14;97762.34;4994278;28;20822;-80
2021/01/29 12:04:05;;;;;;;15.18;2.67;;;;;;;17.81;44.08;97770.59;5004676;28;20039;-78
2021/01/29 12:06:42;;;;;;;17.55;3.20;;;;;;;15.96;48.65;97777.09;4937712;28;20089;-77
2021/01/29 12:09:30;;;;;;;22.13;3.75;;;;;;;14.33;52.79;97793.28;4949914;28;20442;-79
2021/01/29 12:12:09;;;;;;;21.15;4.25;;;;;;;14.69;53.53;97793.13;4935739;28;20051;-77
2021/01/29 12:15:03;;;;;;;24.58;4.80;;;;;;;13.49;57.75;97791.47;4936894;28;20058;-77
2021/01/29 12:17:31;;;;;;;19.83;4.32;;;;;;;14.26;56.16;97797.16;4950831;28;20047;-78
2021/01/29 12:20:01;;;;;;;19.88;4.38;;;;;;;13.89;57.14;97799.97;4938276;28;20142;-77
2021/01/29 12:22:38;;;;;;;18.48;3.10;;;;;;;14.22;55.87;97806.13;4940452;28;20153;-76
2021/01/29 12:25:23;;;;;;;22.75;4.07;;;;;;;14.57;55.25;97809.56;4937311;28;20097;-81
2021/01/29 12:27:59;;;;;;;26.85;4.03;;;;;;;14.58;54.89;97826.19;4940850;28;20550;-77
2021/01/29 12:30:32;;;;;;;23.27;3.15;;;;;;;14.16;55.64;97813.47;4954008;28;21970;-79
2021/01/29 12:33:14;;;;;;;12.43;3.08;;;;;;;14.63;54.57;97821.50;4950828;28;20051;-78